Time;durP1;ratioP1;P1;durP2;ratioP2;P2;SDS_P1;SDS_P2;PMS_P1;PMS_P2;Temp;Humidity;BMP_temperature;BMP_pressure;BME280_temperature;BME280_humidity;BME280_pressure;Samples;Min_cycle;Max_cycle;Signal;HPM_P1;HPM_P2
2023/01/21 00:01:16;;;;;;;33.83;14.95;;;;;;;;;;5075423;28;20194;-43
2023/01/21 00:03:42;;;;;;;32.50;17.33;;;;;;;;;;5079085;28;20174;-45
2023/01/21 00:06:08;;;;;;;38.13;21.42;;;;;;;;;;5081467;28;20212;-44
2023/01/21 00:08:34;;;;;;;34.55;18.67;;;;;;;;;;5074710;28;20181;-43
2023/01/21 00:11:07;;;;;;;33.43;18.47;;;;;;;;;;5074969;28;20170;-45
2023/01/21 00:13:34;;;;;;;39.53;20.90;;;;;;;;;;5074986;28;20421;-43
2023/01/21 00:16:00;;;;;;;39.53;18.27;;;;;;;;;;5079497;28;20204;-43
2023/01/21 00:18:26;;;;;;;39.92;20.10;;;;;;;;;;5078582;28;20201;-43
2023/01/21 00:20:52;;;;;;;37.90;19.47;;;;;;;;;;5077626;28;20245;-43
2023/01/21 00:23:18;;;;;;;39.88;20.00;;;;;;;;;;5081969;28;20431;-43
2023/01/21 00:25:44;;;;;;;37.78;18.95;;;;;;;;;;5074623;28;20170;-47
2023/01/21 00:28:10;;;;;;;37.00;19.73;;;;;;;;;;5077667;28;20269;-43
2023/01/21 00:30:36;;;;;;;48.95;20.08;;;;;;;;;;5079050;28;20424;-42
2023/01/21 00:33:03;;;;;;;31.90;20.08;;;;;;;;;;5074662;28;20257;-43
2023/01/21 00:35:29;;;;;;;33.17;18.92;;;;;;;;;;5076868;28;20238;-43
2023/01/21 00:37:55;;;;;;;42.90;19.43;;;;;;;;;;5074769;28;20629;-43
2023/01/21 00:40:21;;;;;;;34.67;20.20;;;;;;;;;;5074191;28;20946;-43
2023/01/21 00:42:47;;;;;;;41.10;23.77;;;;;;;;;;5077348;28;20419;-42
2023/01/21 00:45:13;;;;;;;32.00;18.57;;;;;;;;;;5078819;28;20166;-43
2023/01/21 00:47:39;;;;;;;37.15;21.15;;;;;;;;;;5080510;28;20412;-42
2023/01/21 00:50:06;;;;;;;30.63;18.52;;;;;;;;;;5081726;28;20198;-43
2023/01/21 00:52:32;;;;;;;31.30;19.60;;;;;;;;;;5074238;28;20178;-43
2023/01/21 00:54:57;;;;;;;44.53;21.05;;;;;;;;;;5076970;28;20226;-44
2023/01/21 00:57:23;;;;;;;46.47;21.83;;;;;;;;;;5075783;28;20193;-43
2023/01/21 00:59:50;;;;;;;46.53;22.07;;;;;;;;;;5075871;28;21005;-46
2023/01/21 01:02:16;;;;;;;42.33;22.27;;;;;;;;;;5072003;28;20861;-43
2023/01/21 01:04:42;;;;;;;40.23;21.07;;;;;;;;;;5073906;28;20260;-44
2023/01/21 01:07:08;;;;;;;35.80;20.47;;;;;;;;;;5073765;28;20442;-46
2023/01/21 01:09:34;;;;;;;42.87;21.63;;;;;;;;;;5073735;28;20475;-41
2023/01/21 01:12:00;;;;;;;45.05;21.98;;;;;;;;;;5078214;28;20407;-40
2023/01/21 01:14:26;;;;;;;48.65;21.30;;;;;;;;;;5077314;28;20178;-41
2023/01/21 01:16:52;;;;;;;46.40;22.20;;;;;;;;;;5075984;28;20680;-41
2023/01/21 01:19:18;;;;;;;44.10;22.03;;;;;;;;;;5073240;28;20197;-41
2023/01/21 01:21:44;;;;;;;46.37;22.53;;;;;;;;;;5074883;28;20461;-40
2023/01/21 01:24:10;;;;;;;40.50;20.20;;;;;;;;;;5076742;28;20872;-41
2023/01/21 01:26:35;;;;;;;46.43;21.00;;;;;;;;;;5075331;28;20411;-42
2023/01/21 01:29:03;;;;;;;40.43;21.13;;;;;;;;;;5079171;28;20435;-44
2023/01/21 01:31:29;;;;;;;49.42;22.15;;;;;;;;;;5078999;28;20407;-41
2023/01/21 01:33:55;;;;;;;39.73;21.97;;;;;;;;;;5075299;28;20178;-40
2023/01/21 01:36:25;;;;;;;42.97;20.48;;;;;;;;;;5073435;28;20405;-41
2023/01/21 01:38:51;;;;;;;43.35;22.30;;;;;;;;;;5075547;28;20243;-41
2023/01/21 01:41:19;;;;;;;41.13;20.90;;;;;;;;;;5077528;28;20296;-41
2023/01/21 01:43:49;;;;;;;36.63;19.73;;;;;;;;;;5073246;28;20614;-43
2023/01/21 01:46:15;;;;;;;47.97;21.95;;;;;;;;;;5079160;28;20251;-43
2023/01/21 01:48:42;;;;;;;34.20;19.00;;;;;;;;;;5072879;28;20665;-43
2023/01/21 01:51:08;;;;;;;37.55;20.95;;;;;;;;;;5074405;28;20408;-41
2023/01/21 01:53:36;;;;;;;36.30;20.40;;;;;;;;;;5075938;28;20245;-41
2023/01/21 01:56:03;;;;;;;47.88;20.67;;;;;;;;;;5073805;28;20178;-41
2023/01/21 01:58:30;;;;;;;43.97;20.08;;;;;;;;;;5067613;28;20574;-41
2023/01/21 02:00:56;;;;;;;37.40;21.40;;;;;;;;;;5079543;28;20237;-42
2023/01/21 02:06:07;;;;;;;39.80;20.10;;;;;;;;;;5074988;28;20274;-40
2023/01/21 02:08:34;;;;;;;57.70;24.70;;;;;;;;;;5072613;28;20214;-41
2023/01/21 02:11:01;;;;;;;45.90;21.02;;;;;;;;;;5078385;28;20412;-43
2023/01/21 02:13:30;;;;;;;47.70;22.50;;;;;;;;;;5072144;28;20626;-41
2023/01/21 02:16:08;;;;;;;41.78;21.45;;;;;;;;;;5072573;28;20245;-41
2023/01/21 02:18:46;;;;;;;56.70;24.88;;;;;;;;;;5072474;28;20169;-40
2023/01/21 02:21:24;;;;;;;55.75;26.05;;;;;;;;;;5064772;28;20536;-41
2023/01/21 02:24:10;;;;;;;45.35;22.42;;;;;;;;;;5069798;28;20633;-42
2023/01/21 02:26:56;;;;;;;52.75;23.95;;;;;;;;;;5067582;28;20232;-42
2023/01/21 02:29:34;;;;;;;45.40;23.02;;;;;;;;;;5065558;28;20210;-43
2023/01/21 02:32:19;;;;;;;46.30;20.50;;;;;;;;;;5072271;28;20200;-44
2023/01/21 02:35:01;;;;;;;46.00;21.42;;;;;;;;;;5074487;28;20243;-41
2023/01/21 02:37:29;;;;;;;48.70;20.88;;;;;;;;;;5075893;28;20170;-41
2023/01/21 02:40:09;;;;;;;41.47;22.13;;;;;;;;;;5071882;28;20259;-41
2023/01/21 02:42:46;;;;;;;50.75;21.52;;;;;;;;;;5072430;28;20173;-41
2023/01/21 02:45:12;;;;;;;46.63;20.65;;;;;;;;;;5065187;28;20576;-41
2023/01/21 02:47:42;;;;;;;38.00;21.57;;;;;;;;;;5073903;28;20274;-41
2023/01/21 02:50:11;;;;;;;46.80;22.50;;;;;;;;;;5075486;28;20490;-42
2023/01/21 02:52:37;;;;;;;42.10;20.70;;;;;;;;;;5076367;28;20196;-43
2023/01/21 02:55:03;;;;;;;42.87;21.37;;;;;;;;;;5075585;28;20641;-41
2023/01/21 02:57:45;;;;;;;46.35;23.70;;;;;;;;;;5071648;28;20473;-41
2023/01/21 03:00:13;;;;;;;45.40;21.25;;;;;;;;;;5063692;28;20198;-41
2023/01/21 03:02:58;;;;;;;41.22;19.52;;;;;;;;;;5072045;28;20653;-41
2023/01/21 03:05:30;;;;;;;47.47;19.60;;;;;;;;;;5072861;28;20178;-40
2023/01/21 03:08:02;;;;;;;43.70;22.15;;;;;;;;;;5071678;28;20236;-41
2023/01/21 03:10:35;;;;;;;41.83;21.85;;;;;;;;;;5071590;28;20634;-40
2023/01/21 03:13:04;;;;;;;48.17;21.65;;;;;;;;;;5074318;28;20174;-41
2023/01/21 03:18:28;;;;;;;51.15;22.05;;;;;;;;;;5070049;28;20228;-41
2023/01/21 03:21:05;;;;;;;40.13;20.95;;;;;;;;;;5072177;28;20189;-44
2023/01/21 03:23:36;;;;;;;44.47;22.20;;;;;;;;;;5072010;28;20534;-41
2023/01/21 03:26:02;;;;;;;42.55;21.80;;;;;;;;;;5070399;28;20213;-44
2023/01/21 03:28:30;;;;;;;45.97;20.83;;;;;;;;;;5073666;28;20227;-44
2023/01/21 03:30:58;;;;;;;39.97;20.95;;;;;;;;;;5075852;28;20227;-44
2023/01/21 03:33:25;;;;;;;42.28;22.88;;;;;;;;;;5077545;28;20174;-41
2023/01/21 03:35:53;;;;;;;45.00;21.17;;;;;;;;;;5079218;28;20228;-41
2023/01/21 03:38:24;;;;;;;44.58;22.95;;;;;;;;;;5071969;28;20208;-42
2023/01/21 03:40:53;;;;;;;46.03;23.33;;;;;;;;;;5073877;28;20684;-41
2023/01/21 03:43:19;;;;;;;48.20;22.60;;;;;;;;;;5071353;28;20181;-44
2023/01/21 03:45:48;;;;;;;52.42;23.58;;;;;;;;;;5071537;28;20170;-41
2023/01/21 03:48:32;;;;;;;49.83;21.55;;;;;;;;;;5074142;28;20170;-41
2023/01/21 03:51:06;;;;;;;44.00;22.27;;;;;;;;;;5078951;28;20210;-42
2023/01/21 03:53:32;;;;;;;49.40;22.33;;;;;;;;;;5071079;28;20712;-41
2023/01/21 03:55:59;;;;;;;47.08;21.25;;;;;;;;;;5073716;28;20253;-41
2023/01/21 03:58:25;;;;;;;44.97;20.92;;;;;;;;;;5075514;28;20185;-41
2023/01/21 04:00:52;;;;;;;42.00;22.17;;;;;;;;;;5077095;28;20565;-41
2023/01/21 04:03:18;;;;;;;42.88;20.20;;;;;;;;;;5071125;28;20174;-44
2023/01/21 04:05:44;;;;;;;45.37;21.63;;;;;;;;;;5071647;28;20352;-47
2023/01/21 04:08:10;;;;;;;43.63;22.07;;;;;;;;;;5070877;28;20466;-41
2023/01/21 04:10:36;;;;;;;41.40;20.70;;;;;;;;;;5070486;28;20432;-42
2023/01/21 04:13:02;;;;;;;48.70;21.70;;;;;;;;;;5074751;28;20427;-40
2023/01/21 04:15:28;;;;;;;41.33;22.90;;;;;;;;;;5077044;28;20416;-43
2023/01/21 04:17:54;;;;;;;50.80;21.30;;;;;;;;;;5078526;28;20415;-41
2023/01/21 04:20:20;;;;;;;50.20;22.00;;;;;;;;;;5070779;28;20495;-42
2023/01/21 04:22:45;;;;;;;39.17;20.83;;;;;;;;;;5073433;28;20407;-43
2023/01/21 04:25:11;;;;;;;48.63;22.63;;;;;;;;;;5071136;28;20884;-40
2023/01/21 04:27:37;;;;;;;46.87;22.10;;;;;;;;;;5075262;28;20967;-40
2023/01/21 04:30:03;;;;;;;45.27;23.20;;;;;;;;;;5070792;28;20442;-41
2023/01/21 04:32:29;;;;;;;46.25;21.63;;;;;;;;;;5078234;28;20427;-41
2023/01/21 04:34:55;;;;;;;40.27;21.70;;;;;;;;;;5071319;28;20629;-40
2023/01/21 04:37:21;;;;;;;40.73;21.70;;;;;;;;;;5077016;28;20473;-40
2023/01/21 04:39:47;;;;;;;40.95;22.20;;;;;;;;;;5078344;28;20501;-41
2023/01/21 04:42:13;;;;;;;53.55;22.25;;;;;;;;;;5076193;28;20241;-41
2023/01/21 04:44:39;;;;;;;44.53;23.57;;;;;;;;;;5078947;28;20269;-42
2023/01/21 04:47:05;;;;;;;42.47;20.83;;;;;;;;;;5081894;28;20400;-44
2023/01/21 04:49:31;;;;;;;39.70;20.13;;;;;;;;;;5074168;28;20225;-41
2023/01/21 04:51:57;;;;;;;46.30;21.37;;;;;;;;;;5076778;28;20477;-41
2023/01/21 04:54:23;;;;;;;50.97;21.73;;;;;;;;;;5078583;28;20504;-41
2023/01/21 04:56:49;;;;;;;40.55;22.02;;;;;;;;;;5074126;28;20416;-40
2023/01/21 04:59:17;;;;;;;46.23;21.57;;;;;;;;;;5077896;28;20209;-41
2023/01/21 05:01:43;;;;;;;43.13;22.10;;;;;;;;;;5077754;28;20419;-41
2023/01/21 05:04:09;;;;;;;45.90;23.10;;;;;;;;;;5074192;28;20178;-42
2023/01/21 05:06:35;;;;;;;50.78;24.40;;;;;;;;;;5076397;28;20782;-41
2023/01/21 05:09:01;;;;;;;44.00;22.37;;;;;;;;;;5077973;28;20194;-44
2023/01/21 05:11:27;;;;;;;45.07;21.50;;;;;;;;;;5079693;28;20393;-41
2023/01/21 05:13:53;;;;;;;46.93;22.23;;;;;;;;;;5081351;28;20960;-40
2023/01/21 05:16:18;;;;;;;56.40;23.98;;;;;;;;;;5073898;28;20888;-41
2023/01/21 05:18:44;;;;;;;48.80;24.13;;;;;;;;;;5075779;28;20190;-42
2023/01/21 05:21:10;;;;;;;55.03;23.10;;;;;;;;;;5072902;28;20477;-41
2023/01/21 05:23:36;;;;;;;43.80;22.02;;;;;;;;;;5077750;28;20407;-40
2023/01/21 05:26:03;;;;;;;39.13;20.93;;;;;;;;;;5079209;28;20257;-42
2023/01/21 05:28:29;;;;;;;45.20;22.20;;;;;;;;;;5073439;28;20796;-42
2023/01/21 05:30:59;;;;;;;45.85;21.88;;;;;;;;;;5073486;28;20190;-41
2023/01/21 05:33:28;;;;;;;44.58;23.70;;;;;;;;;;5073502;28;20185;-42
2023/01/21 05:35:54;;;;;;;46.85;23.98;;;;;;;;;;5077291;28;20250;-41
2023/01/21 05:38:20;;;;;;;36.97;20.00;;;;;;;;;;5073205;28;20568;-41
2023/01/21 05:40:46;;;;;;;45.97;21.50;;;;;;;;;;5073206;28;20483;-41
2023/01/21 05:43:12;;;;;;;42.70;21.23;;;;;;;;;;5073450;28;20401;-40
2023/01/21 05:45:38;;;;;;;48.13;23.33;;;;;;;;;;5073307;28;20440;-40
2023/01/21 05:48:04;;;;;;;48.60;25.13;;;;;;;;;;5074659;28;20415;-42
2023/01/21 05:50:31;;;;;;;43.22;21.38;;;;;;;;;;5077146;28;20429;-44
2023/01/21 05:52:57;;;;;;;44.92;22.38;;;;;;;;;;5078846;28;20256;-41
2023/01/21 05:55:23;;;;;;;43.75;21.10;;;;;;;;;;5075843;28;20186;-44
2023/01/21 05:57:50;;;;;;;48.27;22.97;;;;;;;;;;5073118;28;20173;-44
2023/01/21 06:00:16;;;;;;;45.22;24.25;;;;;;;;;;5072960;28;20456;-44
2023/01/21 06:02:42;;;;;;;48.38;22.05;;;;;;;;;;5075258;28;20186;-44
2023/01/21 06:05:08;;;;;;;47.43;23.43;;;;;;;;;;5076389;28;20186;-44
2023/01/21 06:07:34;;;;;;;48.92;24.30;;;;;;;;;;5078139;28;20500;-44
2023/01/21 06:10:00;;;;;;;50.80;22.60;;;;;;;;;;5079247;28;20202;-44
2023/01/21 06:12:26;;;;;;;42.90;21.90;;;;;;;;;;5072538;28;20466;-44
2023/01/21 06:14:51;;;;;;;42.80;21.77;;;;;;;;;;5074432;28;20465;-44
2023/01/21 06:17:17;;;;;;;49.10;23.57;;;;;;;;;;5072805;28;20404;-43
2023/01/21 06:19:43;;;;;;;47.67;22.53;;;;;;;;;;5075700;28;20502;-44
2023/01/21 06:22:14;;;;;;;45.60;20.53;;;;;;;;;;5078137;28;20439;-44
2023/01/21 06:24:40;;;;;;;36.03;19.60;;;;;;;;;;5079973;28;21107;-44
2023/01/21 06:27:06;;;;;;;40.63;21.70;;;;;;;;;;5071856;28;20205;-44
2023/01/21 06:29:31;;;;;;;45.60;21.90;;;;;;;;;;5074197;28;20436;-44
2023/01/21 06:31:57;;;;;;;45.97;23.63;;;;;;;;;;5076175;28;20407;-44
2023/01/21 06:34:23;;;;;;;48.80;22.57;;;;;;;;;;5075039;28;20416;-44
2023/01/21 06:36:49;;;;;;;42.20;20.00;;;;;;;;;;5075095;28;20412;-44
2023/01/21 06:39:15;;;;;;;40.90;21.37;;;;;;;;;;5079204;28;20440;-43
2023/01/21 06:41:41;;;;;;;42.30;22.55;;;;;;;;;;5072300;28;20435;-45
2023/01/21 06:44:07;;;;;;;47.58;22.48;;;;;;;;;;5074674;28;20182;-43
2023/01/21 06:46:33;;;;;;;46.70;20.83;;;;;;;;;;5075831;28;20673;-44
2023/01/21 06:48:59;;;;;;;41.13;20.90;;;;;;;;;;5077087;28;20953;-45
2023/01/21 06:51:25;;;;;;;37.75;20.75;;;;;;;;;;5076580;28;20407;-44
2023/01/21 06:53:51;;;;;;;36.17;20.35;;;;;;;;;;5074454;28;20158;-44
2023/01/21 06:56:17;;;;;;;38.27;20.63;;;;;;;;;;5071982;28;20165;-44
2023/01/21 06:58:43;;;;;;;71.17;36.67;;;;;;;;;;5071602;28;20507;-44
2023/01/21 07:01:09;;;;;;;44.97;22.93;;;;;;;;;;5075449;28;20463;-44
2023/01/21 07:03:35;;;;;;;40.53;22.88;;;;;;;;;;5077334;28;20415;-44
2023/01/21 07:06:01;;;;;;;52.00;23.87;;;;;;;;;;5078692;28;20170;-43
2023/01/21 07:08:27;;;;;;;38.17;21.00;;;;;;;;;;5071707;28;20444;-43
2023/01/21 07:10:53;;;;;;;45.77;21.43;;;;;;;;;;5073708;28;20416;-44
2023/01/21 07:13:19;;;;;;;46.00;22.13;;;;;;;;;;5071779;28;20458;-44
2023/01/21 07:15:45;;;;;;;38.60;20.83;;;;;;;;;;5075313;28;20533;-44
2023/01/21 07:18:11;;;;;;;45.23;22.57;;;;;;;;;;5076749;28;20424;-44
2023/01/21 07:20:39;;;;;;;46.87;22.70;;;;;;;;;;5078520;28;20464;-44
2023/01/21 07:23:04;;;;;;;48.63;23.08;;;;;;;;;;5071589;28;20490;-44
2023/01/21 07:25:31;;;;;;;44.03;23.00;;;;;;;;;;5073570;28;20630;-43
2023/01/21 07:27:57;;;;;;;39.88;22.05;;;;;;;;;;5075045;28;20400;-44
2023/01/21 07:30:23;;;;;;;38.10;21.92;;;;;;;;;;5073983;28;20538;-44
2023/01/21 07:32:49;;;;;;;42.97;24.63;;;;;;;;;;5074323;28;20169;-44
2023/01/21 07:35:15;;;;;;;39.50;21.00;;;;;;;;;;5078591;28;20851;-44
2023/01/21 07:37:41;;;;;;;47.92;24.35;;;;;;;;;;5071207;28;20205;-43
2023/01/21 07:40:07;;;;;;;44.60;24.47;;;;;;;;;;5073396;28;20314;-44
2023/01/21 07:42:33;;;;;;;52.85;24.45;;;;;;;;;;5074814;28;20904;-44
2023/01/21 07:45:01;;;;;;;58.30;27.73;;;;;;;;;;5076568;28;20181;-44
2023/01/21 07:47:27;;;;;;;54.25;26.15;;;;;;;;;;5075832;28;20915;-44
2023/01/21 07:49:53;;;;;;;46.13;21.27;;;;;;;;;;5073224;28;20190;-44
2023/01/21 07:52:19;;;;;;;48.07;24.77;;;;;;;;;;5071368;28;20170;-44
2023/01/21 07:54:46;;;;;;;48.95;25.42;;;;;;;;;;5070373;28;20455;-46
2023/01/21 07:57:13;;;;;;;49.55;23.65;;;;;;;;;;5074556;28;20609;-44
2023/01/21 07:59:39;;;;;;;43.97;24.15;;;;;;;;;;5075967;28;20202;-44
2023/01/21 08:02:05;;;;;;;44.93;21.77;;;;;;;;;;5077826;28;20577;-43
2023/01/21 08:04:30;;;;;;;42.73;21.77;;;;;;;;;;5068899;28;20867;-44
2023/01/21 08:06:57;;;;;;;50.13;23.50;;;;;;;;;;5073507;28;20786;-44
2023/01/21 08:09:24;;;;;;;44.35;23.10;;;;;;;;;;5071116;28;20477;-43
2023/01/21 08:11:49;;;;;;;45.65;24.15;;;;;;;;;;5074754;28;20162;-44
2023/01/21 08:14:15;;;;;;;46.90;25.60;;;;;;;;;;5075197;28;20186;-43
2023/01/21 08:16:41;;;;;;;54.22;23.30;;;;;;;;;;5081686;28;20526;-45
2023/01/21 08:19:07;;;;;;;45.90;24.88;;;;;;;;;;5074664;28;20229;-44
2023/01/21 08:21:34;;;;;;;54.37;24.80;;;;;;;;;;5076616;28;20606;-44
2023/01/21 08:24:00;;;;;;;49.30;25.00;;;;;;;;;;5077113;28;20465;-43
2023/01/21 08:26:26;;;;;;;52.23;24.03;;;;;;;;;;5077286;28;20250;-46
2023/01/21 08:28:55;;;;;;;47.57;23.00;;;;;;;;;;5077572;28;20421;-44
2023/01/21 08:31:21;;;;;;;46.45;23.55;;;;;;;;;;5074838;28;20404;-44
2023/01/21 08:33:47;;;;;;;40.53;24.17;;;;;;;;;;5082889;28;20186;-42
2023/01/21 08:36:14;;;;;;;44.03;22.43;;;;;;;;;;5074523;28;20830;-46
2023/01/21 08:38:40;;;;;;;48.30;22.42;;;;;;;;;;5077952;28;20938;-44
2023/01/21 08:41:06;;;;;;;43.40;24.00;;;;;;;;;;5079647;28;20277;-44
2023/01/21 08:43:32;;;;;;;45.05;25.23;;;;;;;;;;5079482;28;20204;-44
2023/01/21 08:46:00;;;;;;;51.07;25.17;;;;;;;;;;5077780;28;20254;-44
2023/01/21 08:48:26;;;;;;;44.35;23.95;;;;;;;;;;5080345;28;20405;-43
2023/01/21 08:50:52;;;;;;;46.50;22.40;;;;;;;;;;5074333;28;20704;-46
2023/01/21 08:53:18;;;;;;;39.00;21.67;;;;;;;;;;5076124;28;20182;-46
2023/01/21 08:55:44;;;;;;;40.65;20.92;;;;;;;;;;5075555;28;20979;-43
2023/01/21 08:58:10;;;;;;;47.33;23.00;;;;;;;;;;5074266;28;20182;-44
2023/01/21 09:00:36;;;;;;;45.53;23.63;;;;;;;;;;5073855;28;20865;-44
2023/01/21 09:03:02;;;;;;;47.23;23.13;;;;;;;;;;5074054;28;20428;-44
2023/01/21 09:05:28;;;;;;;46.90;23.23;;;;;;;;;;5075075;28;20396;-44
2023/01/21 09:07:54;;;;;;;43.10;23.17;;;;;;;;;;5076494;28;20396;-44
2023/01/21 09:13:05;;;;;;;43.80;22.00;;;;;;;;;;5073799;28;20324;-45
2023/01/21 09:15:31;;;;;;;44.63;22.33;;;;;;;;;;5082075;28;20175;-44
2023/01/21 09:17:57;;;;;;;40.20;20.50;;;;;;;;;;5073739;28;20175;-44
2023/01/21 09:20:23;;;;;;;57.27;25.27;;;;;;;;;;5076840;28;20610;-44
2023/01/21 09:22:49;;;;;;;31.77;20.13;;;;;;;;;;5077424;28;20741;-45
2023/01/21 09:25:15;;;;;;;40.73;22.03;;;;;;;;;;5076204;28;20472;-44
2023/01/21 09:27:40;;;;;;;39.90;22.50;;;;;;;;;;5077700;28;20499;-43
2023/01/21 09:30:07;;;;;;;44.80;24.27;;;;;;;;;;5081416;28;20425;-44
2023/01/21 09:32:33;;;;;;;52.97;25.70;;;;;;;;;;5073671;28;20920;-44
2023/01/21 09:34:59;;;;;;;39.27;21.77;;;;;;;;;;5076632;28;20236;-44
2023/01/21 09:37:25;;;;;;;39.30;22.55;;;;;;;;;;5078213;28;20413;-44
2023/01/21 09:39:51;;;;;;;35.60;20.07;;;;;;;;;;5079590;28;20560;-44
2023/01/21 09:42:21;;;;;;;45.90;22.87;;;;;;;;;;5077546;28;20766;-45
2023/01/21 09:44:49;;;;;;;36.03;19.98;;;;;;;;;;5076476;28;20400;-46
2023/01/21 09:47:28;;;;;;;43.92;23.65;;;;;;;;;;5073374;28;20166;-44
2023/01/21 09:49:55;;;;;;;42.30;21.73;;;;;;;;;;5071380;28;20208;-46
2023/01/21 09:52:24;;;;;;;41.65;21.55;;;;;;;;;;5077951;28;20531;-46
2023/01/21 09:54:50;;;;;;;36.00;20.40;;;;;;;;;;5079323;28;20263;-46
2023/01/21 09:57:31;;;;;;;40.22;22.67;;;;;;;;;;5073613;28;20217;-44
2023/01/21 10:00:14;;;;;;;40.95;20.63;;;;;;;;;;5072941;28;20255;-46
2023/01/21 10:02:40;;;;;;;41.00;18.67;;;;;;;;;;5076470;28;20190;-44
2023/01/21 10:05:06;;;;;;;40.40;19.50;;;;;;;;;;5077143;28;20174;-45
2023/01/21 10:07:38;;;;;;;41.90;19.87;;;;;;;;;;5072498;28;20401;-44
2023/01/21 10:10:09;;;;;;;31.65;17.23;;;;;;;;;;5074599;28;20432;-45
2023/01/21 10:12:41;;;;;;;36.00;19.40;;;;;;;;;;5077361;28;20766;-44
2023/01/21 10:15:25;;;;;;;39.63;20.75;;;;;;;;;;5071840;28;20179;-44
2023/01/21 10:17:54;;;;;;;41.30;21.30;;;;;;;;;;5069688;28;20182;-45
2023/01/21 10:20:29;;;;;;;33.72;18.55;;;;;;;;;;5076488;28;20205;-45
2023/01/21 10:23:01;;;;;;;36.40;19.15;;;;;;;;;;5078235;28;20177;-45
2023/01/21 10:25:30;;;;;;;38.53;19.08;;;;;;;;;;5080651;28;20174;-45
2023/01/21 10:27:58;;;;;;;39.53;20.65;;;;;;;;;;5072523;28;20181;-45
2023/01/21 10:30:27;;;;;;;39.30;20.92;;;;;;;;;;5075078;28;20260;-44
2023/01/21 10:32:54;;;;;;;39.63;20.70;;;;;;;;;;5076876;28;20178;-44
2023/01/21 10:35:28;;;;;;;37.13;20.50;;;;;;;;;;5075435;28;20660;-44
2023/01/21 10:38:01;;;;;;;64.03;29.42;;;;;;;;;;5075358;28;20198;-44
2023/01/21 10:40:54;;;;;;;45.72;22.08;;;;;;;;;;5078051;28;20570;-45
2023/01/21 10:43:39;;;;;;;44.78;23.00;;;;;;;;;;5055546;28;20174;-45
2023/01/21 10:46:25;;;;;;;46.65;20.48;;;;;;;;;;5070022;28;20286;-45
2023/01/21 10:49:19;;;;;;;42.92;23.00;;;;;;;;;;5051469;28;20290;-45
2023/01/21 10:51:47;;;;;;;43.65;20.27;;;;;;;;;;5052100;28;20171;-45
2023/01/21 10:54:16;;;;;;;39.47;20.58;;;;;;;;;;5092483;28;20649;-45
2023/01/21 10:56:48;;;;;;;41.08;21.83;;;;;;;;;;5092226;28;20230;-45
2023/01/21 10:59:16;;;;;;;41.45;20.75;;;;;;;;;;5091942;28;20685;-45
2023/01/21 11:01:44;;;;;;;40.05;20.23;;;;;;;;;;5091900;28;20187;-45
2023/01/21 11:04:15;;;;;;;48.25;19.02;;;;;;;;;;5092508;28;20178;-45
2023/01/21 11:06:42;;;;;;;44.67;21.00;;;;;;;;;;5084784;28;20178;-45
2023/01/21 11:09:10;;;;;;;32.30;17.92;;;;;;;;;;5075968;28;20193;-45
2023/01/21 11:11:37;;;;;;;45.55;20.40;;;;;;;;;;5092103;28;20169;-44
2023/01/21 11:14:03;;;;;;;42.05;19.35;;;;;;;;;;5091963;28;20189;-45
2023/01/21 11:16:46;;;;;;;36.83;18.13;;;;;;;;;;5091775;28;20728;-44
2023/01/21 11:19:13;;;;;;;46.10;20.20;;;;;;;;;;5091509;28;20197;-45
2023/01/21 11:21:39;;;;;;;36.13;18.83;;;;;;;;;;5091982;28;20289;-45
2023/01/21 11:24:22;;;;;;;34.73;16.70;;;;;;;;;;5091908;28;20191;-45
2023/01/21 11:26:55;;;;;;;37.17;19.05;;;;;;;;;;5091919;28;20450;-45
2023/01/21 11:29:22;;;;;;;40.58;18.00;;;;;;;;;;5091742;28;20212;-44
2023/01/21 11:31:50;;;;;;;37.20;18.83;;;;;;;;;;5091773;28;20658;-45
2023/01/21 11:34:17;;;;;;;46.47;19.50;;;;;;;;;;5091844;28;20269;-44
2023/01/21 11:36:57;;;;;;;38.03;17.92;;;;;;;;;;5091620;28;20157;-44
2023/01/21 11:39:24;;;;;;;43.42;19.58;;;;;;;;;;5091854;28;20550;-45
2023/01/21 11:41:51;;;;;;;39.85;19.52;;;;;;;;;;5091889;28;20181;-45
2023/01/21 11:44:18;;;;;;;44.42;20.63;;;;;;;;;;5091456;28;20234;-45
2023/01/21 11:46:44;;;;;;;48.42;21.17;;;;;;;;;;5091165;28;20209;-45
2023/01/21 11:49:11;;;;;;;44.70;21.83;;;;;;;;;;5091358;28;20193;-45
2023/01/21 11:51:38;;;;;;;51.47;23.10;;;;;;;;;;5091422;28;20166;-45
2023/01/21 11:54:14;;;;;;;46.03;23.83;;;;;;;;;;5091636;28;20193;-45
2023/01/21 11:56:42;;;;;;;41.80;20.90;;;;;;;;;;5091462;28;20256;-44
2023/01/21 11:59:17;;;;;;;48.30;22.23;;;;;;;;;;5091016;28;20598;-44
2023/01/21 12:01:50;;;;;;;44.05;20.23;;;;;;;;;;5091089;28;20275;-44
2023/01/21 12:04:16;;;;;;;46.03;19.60;;;;;;;;;;5091035;28;20244;-45
2023/01/21 12:06:46;;;;;;;39.80;16.02;;;;;;;;;;5090730;28;20234;-45
2023/01/21 12:09:16;;;;;;;47.28;22.15;;;;;;;;;;5090765;28;20193;-45
2023/01/21 12:11:44;;;;;;;54.13;22.98;;;;;;;;;;5090970;28;20235;-45
2023/01/21 12:14:19;;;;;;;47.25;23.05;;;;;;;;;;5081878;28;20182;-44
2023/01/21 12:16:48;;;;;;;48.55;22.85;;;;;;;;;;5078612;28;20229;-44
2023/01/21 12:19:40;;;;;;;43.47;21.58;;;;;;;;;;5091085;28;20196;-45
2023/01/21 12:22:15;;;;;;;38.58;19.75;;;;;;;;;;5073547;28;20237;-44
2023/01/21 12:24:50;;;;;;;47.42;21.30;;;;;;;;;;5074687;28;20173;-45
2023/01/21 12:27:31;;;;;;;37.40;17.35;;;;;;;;;;5091066;28;20161;-45
2023/01/21 12:30:16;;;;;;;45.28;21.48;;;;;;;;;;5080791;28;20255;-45
2023/01/21 12:32:55;;;;;;;44.13;19.25;;;;;;;;;;5070917;28;20173;-45
2023/01/21 12:35:26;;;;;;;36.30;16.35;;;;;;;;;;5064159;28;20261;-45
2023/01/21 12:37:56;;;;;;;41.28;20.13;;;;;;;;;;5068408;28;20166;-44
2023/01/21 12:40:32;;;;;;;35.83;19.10;;;;;;;;;;5074479;28;20204;-45
2023/01/21 12:43:05;;;;;;;43.95;20.40;;;;;;;;;;5076645;28;20312;-45
2023/01/21 12:45:39;;;;;;;44.60;19.30;;;;;;;;;;5078079;28;20170;-45
2023/01/21 12:48:15;;;;;;;35.13;17.70;;;;;;;;;;5070584;28;20173;-45
2023/01/21 12:50:48;;;;;;;41.30;19.15;;;;;;;;;;5073297;28;20640;-45
2023/01/21 12:53:17;;;;;;;42.17;18.52;;;;;;;;;;5067209;28;20174;-45
2023/01/21 12:55:43;;;;;;;43.42;18.55;;;;;;;;;;5072661;28;20182;-45
2023/01/21 12:58:12;;;;;;;44.47;18.13;;;;;;;;;;5065766;28;20173;-45
2023/01/21 13:00:40;;;;;;;41.63;19.13;;;;;;;;;;5074330;28;20889;-44
2023/01/21 13:03:09;;;;;;;41.08;17.35;;;;;;;;;;5074137;28;20212;-45
2023/01/21 13:05:43;;;;;;;39.25;17.15;;;;;;;;;;5076472;28;20178;-45
2023/01/21 13:08:22;;;;;;;39.33;18.10;;;;;;;;;;5077026;28;20230;-45
2023/01/21 13:10:55;;;;;;;41.35;20.30;;;;;;;;;;5075136;28;20189;-46
2023/01/21 13:13:30;;;;;;;37.17;16.38;;;;;;;;;;5074320;28;20185;-46
2023/01/21 13:15:58;;;;;;;54.25;20.42;;;;;;;;;;5072736;28;20480;-46
2023/01/21 13:18:34;;;;;;;40.10;18.75;;;;;;;;;;5071881;28;20174;-46
2023/01/21 13:21:21;;;;;;;45.17;17.35;;;;;;;;;;5072293;28;20190;-45
2023/01/21 13:23:52;;;;;;;36.03;17.45;;;;;;;;;;5061962;28;20249;-46
2023/01/21 13:26:24;;;;;;;37.88;17.25;;;;;;;;;;5077366;28;20598;-46
2023/01/21 13:28:55;;;;;;;31.17;16.48;;;;;;;;;;5093632;28;20260;-46
2023/01/21 13:31:39;;;;;;;27.80;15.65;;;;;;;;;;5094088;28;20544;-46
2023/01/21 13:34:24;;;;;;;35.22;17.27;;;;;;;;;;5094003;28;20688;-46
2023/01/21 13:36:56;;;;;;;32.42;15.55;;;;;;;;;;5093863;28;20246;-46
2023/01/21 13:39:41;;;;;;;28.98;15.10;;;;;;;;;;5093578;28;20205;-49
2023/01/21 13:42:16;;;;;;;33.53;16.45;;;;;;;;;;5093724;28;20282;-46
2023/01/21 13:44:53;;;;;;;33.70;16.65;;;;;;;;;;5093805;28;20176;-49
2023/01/21 13:47:25;;;;;;;26.13;13.57;;;;;;;;;;5093860;28;20176;-48
2023/01/21 13:49:54;;;;;;;32.80;13.73;;;;;;;;;;5093482;28;20193;-46
2023/01/21 13:52:39;;;;;;;26.08;12.73;;;;;;;;;;5093487;28;20668;-46
2023/01/21 13:55:05;;;;;;;26.40;13.85;;;;;;;;;;5093929;28;20185;-46
2023/01/21 13:57:40;;;;;;;25.47;14.10;;;;;;;;;;5093420;28;20184;-46
2023/01/21 14:00:13;;;;;;;30.70;13.98;;;;;;;;;;5093390;28;20454;-46
2023/01/21 14:02:53;;;;;;;26.60;14.07;;;;;;;;;;5093253;28;20251;-46
2023/01/21 14:05:19;;;;;;;29.45;14.93;;;;;;;;;;5093479;28;20172;-47
2023/01/21 14:08:04;;;;;;;25.83;14.10;;;;;;;;;;5092601;28;20540;-46
2023/01/21 14:10:33;;;;;;;22.85;14.60;;;;;;;;;;5093572;28;20826;-46
2023/01/21 14:13:07;;;;;;;23.75;12.48;;;;;;;;;;5093203;28;20177;-46
2023/01/21 14:15:39;;;;;;;28.77;13.95;;;;;;;;;;5093418;28;20231;-46
2023/01/21 14:18:09;;;;;;;29.75;15.88;;;;;;;;;;5093104;28;20185;-46
2023/01/21 14:21:01;;;;;;;34.08;14.98;;;;;;;;;;5092823;28;20244;-46
2023/01/21 14:23:46;;;;;;;23.38;12.13;;;;;;;;;;5092887;28;20177;-46
2023/01/21 14:26:23;;;;;;;29.73;13.75;;;;;;;;;;5093054;28;20205;-46
2023/01/21 14:28:52;;;;;;;24.15;12.73;;;;;;;;;;5092683;28;20204;-48
2023/01/21 14:31:30;;;;;;;33.72;14.85;;;;;;;;;;5092965;28;20659;-46
2023/01/21 14:33:56;;;;;;;25.25;14.05;;;;;;;;;;5085789;28;20244;-46
2023/01/21 14:36:36;;;;;;;27.03;14.37;;;;;;;;;;5076522;28;20661;-46